Time;durP1;ratioP1;P1;durP2;ratioP2;P2;SDS_P1;SDS_P2;PMS_P1;PMS_P2;Temp;Humidity;BMP_temperature;BMP_pressure;BME280_temperature;BME280_humidity;BME280_pressure;Samples;Min_cycle;Max_cycle;Signal;HPM_P1;HPM_P2
2022/02/11 00:01:20;;;;;;;40.17;29.80;;;;;;;4.79;90.68;99822.42;1788674;78;21546;-80
2022/02/11 00:08:48;;;;;;;37.10;26.95;;;;;;;4.71;91.06;99820.78;1795373;78;22895;-85
2022/02/11 00:11:18;;;;;;;40.03;28.65;;;;;;;4.68;91.19;99826.54;1818081;78;21113;-83
2022/02/11 00:13:45;;;;;;;36.88;26.10;;;;;;;4.65;91.30;99826.14;1818191;78;20967;-88
2022/02/11 00:16:17;;;;;;;36.73;26.57;;;;;;;4.63;91.44;99825.02;1818270;78;21581;-78
2022/02/11 00:18:44;;;;;;;32.80;25.27;;;;;;;4.60;91.62;99817.45;1790420;80;21027;-80
2022/02/11 00:21:11;;;;;;;31.42;23.45;;;;;;;4.57;91.84;99821.02;1786168;80;21054;-76
2022/02/11 00:23:39;;;;;;;33.02;22.95;;;;;;;4.57;92.12;99811.70;1739653;80;21038;-80
2022/02/11 00:26:08;;;;;;;32.20;25.45;;;;;;;4.57;92.37;99811.70;1738517;82;21041;-83
2022/02/11 00:33:56;;;;;;;33.73;23.45;;;;;;;4.58;92.97;99790.70;1722797;79;21191;-82
2022/02/11 00:36:26;;;;;;;33.58;25.45;;;;;;;4.56;93.16;99785.57;1716569;82;21178;-75
2022/02/11 01:03:06;;;;;;;35.08;24.65;;;;;;;4.55;94.93;99772.48;1745733;81;21016;-80
2022/02/11 01:05:29;;;;;;;30.23;22.73;;;;;;;4.55;95.08;99769.82;1769311;81;21605;-74
2022/02/11 01:07:56;;;;;;;30.12;22.67;;;;;;;4.59;95.26;99764.37;1769064;80;21079;-77
2022/02/11 01:10:23;;;;;;;33.28;23.87;;;;;;;4.61;95.38;99761.80;1768897;81;21241;-77
2022/02/11 01:12:50;;;;;;;35.13;25.32;;;;;;;4.63;95.31;99759.75;1766115;79;22185;-74
2022/02/11 01:15:16;;;;;;;27.75;20.20;;;;;;;4.63;95.28;99765.08;1768790;81;20988;-82
2022/02/11 01:17:54;;;;;;;33.85;24.37;;;;;;;4.64;95.32;99767.23;1769067;81;21043;-79
2022/02/11 01:20:21;;;;;;;28.60;23.77;;;;;;;4.64;95.23;99761.91;1766506;81;21047;-76
2022/02/11 01:25:43;;;;;;;28.73;23.60;;;;;;;4.60;95.14;99764.17;1768706;81;21204;-75
2022/02/11 01:28:08;;;;;;;34.58;27.00;;;;;;;4.61;95.26;99750.31;1768355;81;20989;-73
2022/02/11 01:30:53;;;;;;;27.10;21.27;;;;;;;4.64;95.32;99755.24;1767168;81;21076;-72
2022/02/11 01:38:18;;;;;;;27.90;20.80;;;;;;;4.69;95.00;99750.93;1707850;83;21263;-82
2022/02/11 01:46:15;;;;;;;30.97;21.82;;;;;;;4.63;94.93;99749.61;1729146;83;20181;-84
2022/02/11 01:56:14;;;;;;;27.48;20.23;;;;;;;4.67;94.92;99734.33;1718779;81;21123;-73
2022/02/11 01:58:59;;;;;;;26.27;19.73;;;;;;;4.68;94.75;99735.15;1785203;80;20994;-72
2022/02/11 02:04:02;;;;;;;27.48;20.72;;;;;;;4.64;94.43;99713.45;1770005;80;21093;-75
2022/02/11 02:09:17;;;;;;;24.90;20.35;;;;;;;4.64;94.45;99712.11;1755303;81;20983;-74
2022/02/11 02:50:08;;;;;;;36.05;21.15;;;;;;;4.61;93.16;99662.42;1753939;81;21253;-73
2022/02/11 02:56:56;;;;;;;23.98;18.07;;;;;;;4.66;92.88;99635.97;1734422;81;21579;-75
2022/02/11 04:24:43;;;;;;;22.75;18.32;;;;;;;4.66;89.94;99566.71;1745053;81;21013;-75
2022/02/11 04:53:09;;;;;;;20.12;15.98;;;;;;;4.50;88.98;99556.08;1738446;82;21072;-73
2022/02/11 04:55:20;;;;;;;18.92;15.08;;;;;;;4.48;89.04;99551.47;1782612;80;21054;-74
2022/02/11 05:00:21;;;;;;;24.82;17.40;;;;;;;4.54;88.96;99559.12;1817378;78;20991;-74
2022/02/11 05:02:48;;;;;;;21.00;17.27;;;;;;;4.54;88.77;99558.61;1818062;78;21063;-74
2022/02/11 05:05:15;;;;;;;20.90;15.83;;;;;;;4.55;88.55;99558.09;1818363;78;20956;-73
2022/02/11 05:07:42;;;;;;;21.97;16.87;;;;;;;4.54;88.39;99561.27;1818260;78;21062;-73
2022/02/11 05:10:13;;;;;;;22.48;17.98;;;;;;;4.55;88.29;99556.77;1818291;78;21054;-74
2022/02/11 05:12:42;;;;;;;20.43;16.60;;;;;;;4.54;88.17;99553.28;1795496;78;20897;-73
2022/02/11 05:15:10;;;;;;;23.42;17.12;;;;;;;4.58;88.08;99553.66;1785841;80;21003;-74
2022/02/11 05:17:37;;;;;;;21.62;16.93;;;;;;;4.60;87.89;99540.96;1701357;83;21632;-75
2022/02/11 05:20:06;;;;;;;21.12;16.25;;;;;;;4.61;87.69;99550.05;1754213;81;21056;-74
2022/02/11 05:22:33;;;;;;;20.48;15.40;;;;;;;4.61;87.53;99543.39;1764830;80;21679;-73
2022/02/11 05:25:00;;;;;;;20.92;17.67;;;;;;;4.61;87.31;99551.89;1786519;80;21023;-74
2022/02/11 05:27:26;;;;;;;22.58;18.07;;;;;;;4.60;87.21;99540.96;1786209;80;21011;-73
2022/02/11 05:29:52;;;;;;;22.77;17.07;;;;;;;4.57;87.19;99542.19;1765249;80;21195;-76
2022/02/11 05:32:20;;;;;;;21.87;16.07;;;;;;;4.58;87.17;99540.34;1751561;80;21000;-77
2022/02/11 05:34:46;;;;;;;25.25;17.32;;;;;;;4.59;87.14;99540.66;1755800;81;21467;-76
2022/02/11 05:37:12;;;;;;;26.15;18.77;;;;;;;4.60;87.00;99539.62;1755507;80;20998;-77
2022/02/11 05:39:39;;;;;;;28.00;18.80;;;;;;;4.62;86.84;99541.55;1704422;83;20995;-75
2022/02/11 05:42:06;;;;;;;22.20;17.70;;;;;;;4.63;86.75;99537.34;1755511;81;21085;-77
2022/02/11 05:44:34;;;;;;;29.05;20.68;;;;;;;4.64;86.62;99537.65;1729186;81;20966;-78
2022/02/11 05:47:00;;;;;;;27.25;18.32;;;;;;;4.64;86.37;99546.16;1735743;81;21492;-78
2022/02/11 05:49:27;;;;;;;23.70;16.85;;;;;;;4.63;86.25;99542.67;1735995;81;21020;-76
2022/02/11 05:51:53;;;;;;;24.98;16.20;;;;;;;4.65;86.16;99534.47;1755308;81;21014;-78
2022/02/11 05:54:19;;;;;;;20.15;16.57;;;;;;;4.67;86.01;99537.21;1735566;81;21488;-76
2022/02/11 05:56:49;;;;;;;26.95;20.85;;;;;;;4.70;85.80;99530.11;1755439;81;20986;-74
2022/02/11 05:59:17;;;;;;;25.85;19.00;;;;;;;4.73;85.49;99525.70;1755599;80;21186;-76
2022/02/11 06:01:44;;;;;;;20.90;18.25;;;;;;;4.77;85.31;99523.41;1723746;83;20992;-75
2022/02/11 06:04:10;;;;;;;18.55;15.35;;;;;;;4.79;85.07;99527.51;1735795;80;21042;-76
2022/02/11 06:06:36;;;;;;;25.23;18.52;;;;;;;4.81;84.93;99526.76;1758301;80;21022;-74
2022/02/11 06:09:03;;;;;;;25.48;19.17;;;;;;;4.84;84.78;99529.52;1786317;80;21011;-75
2022/02/11 06:11:30;;;;;;;25.30;18.55;;;;;;;4.84;84.65;99525.53;1786281;80;21551;-76
2022/02/11 06:13:59;;;;;;;23.00;17.70;;;;;;;4.84;84.45;99526.31;1786047;80;20952;-76
2022/02/11 06:16:25;;;;;;;24.02;18.00;;;;;;;4.84;84.29;99527.64;1782356;80;21030;-75
2022/02/11 06:18:52;;;;;;;29.87;21.23;;;;;;;4.87;84.17;99531.73;1723769;83;21494;-75
2022/02/11 06:21:21;;;;;;;24.12;17.98;;;;;;;4.91;84.17;99532.11;1736175;81;21096;-76
2022/02/11 06:23:55;;;;;;;24.15;18.12;;;;;;;4.98;83.95;99533.72;1770966;80;21230;-77
2022/02/11 06:26:17;;;;;;;21.95;17.30;;;;;;;5.04;83.46;99537.33;1785608;80;21048;-75
2022/02/11 06:28:43;;;;;;;26.42;19.15;;;;;;;5.08;83.12;99518.56;1786470;80;20959;-75
2022/02/11 06:31:12;;;;;;;20.72;14.58;;;;;;;5.14;82.90;99533.66;1709848;83;21049;-75
2022/02/11 06:33:39;;;;;;;21.60;15.05;;;;;;;5.18;82.51;99522.89;1782113;79;21091;-79
2022/02/11 06:36:06;;;;;;;21.97;15.93;;;;;;;5.21;81.75;99523.77;1785349;80;21110;-76
2022/02/11 06:38:35;;;;;;;28.98;15.98;;;;;;;5.25;81.66;99518.30;1769492;80;21067;-77
2022/02/11 06:41:03;;;;;;;24.45;15.10;;;;;;;5.32;81.30;99526.23;1756805;80;21609;-78
2022/02/11 06:43:31;;;;;;;18.45;15.15;;;;;;;5.40;80.61;99538.77;1756572;80;21599;-79
2022/02/11 06:45:58;;;;;;;20.52;14.87;;;;;;;5.49;80.03;99529.44;1785373;79;21057;-79
2022/02/11 06:48:25;;;;;;;19.42;13.70;;;;;;;5.58;79.75;99521.95;1785063;80;21806;-78
2022/02/11 06:50:53;;;;;;;17.95;15.45;;;;;;;5.66;79.07;99528.33;1761472;80;21015;-80
2022/02/11 06:53:20;;;;;;;18.48;13.80;;;;;;;5.73;78.57;99523.75;1785287;80;21007;-78
2022/02/11 06:55:47;;;;;;;20.17;14.53;;;;;;;5.79;77.94;99528.20;1761032;80;21076;-77
2022/02/11 06:58:14;;;;;;;16.77;12.58;;;;;;;5.85;77.56;99531.30;1784377;80;21165;-82
2022/02/11 07:00:47;;;;;;;15.45;12.10;;;;;;;5.91;77.26;99532.30;1772940;80;21553;-81
2022/02/11 07:03:14;;;;;;;17.00;11.45;;;;;;;5.97;76.87;99539.41;1786049;80;21034;-79
2022/02/11 07:05:42;;;;;;;13.72;10.48;;;;;;;6.06;76.44;99544.22;1739559;80;20952;-79
2022/02/11 07:08:11;;;;;;;16.77;14.40;;;;;;;6.12;76.12;99544.67;1763829;80;20935;-79
2022/02/11 07:10:37;;;;;;;14.30;12.07;;;;;;;6.20;75.89;99546.20;1787917;78;21007;-74
2022/02/11 07:13:06;;;;;;;14.68;11.43;;;;;;;6.25;75.59;99545.02;1740134;81;21895;-76
2022/02/11 07:15:37;;;;;;;14.53;11.48;;;;;;;6.29;75.52;99542.70;1715270;82;21043;-78
2022/02/11 07:18:01;;;;;;;14.93;12.30;;;;;;;6.31;75.24;99544.13;1737759;82;21021;-74
2022/02/11 07:20:28;;;;;;;21.42;11.30;;;;;;;6.33;75.07;99553.25;1713395;82;21052;-77
2022/02/11 07:22:55;;;;;;;13.78;9.95;;;;;;;6.36;75.01;99542.92;1713164;82;21016;-75
2022/02/11 07:25:21;;;;;;;12.73;10.78;;;;;;;6.41;74.88;99543.58;1738561;82;21835;-79
2022/02/11 07:27:47;;;;;;;14.78;10.48;;;;;;;6.42;74.58;99540.69;1688960;82;21607;-77
2022/02/11 07:30:14;;;;;;;13.08;10.98;;;;;;;6.45;74.36;99549.58;1713255;82;21520;-75
2022/02/11 07:32:40;;;;;;;17.60;13.65;;;;;;;6.47;74.50;99543.50;1756655;79;21052;-76
2022/02/11 07:35:07;;;;;;;12.80;10.85;;;;;;;6.49;74.41;99556.09;1722172;82;21032;-76
2022/02/11 07:37:35;;;;;;;15.40;12.40;;;;;;;6.51;74.38;99550.53;1727442;81;21113;-75
2022/02/11 07:40:02;;;;;;;17.35;13.25;;;;;;;6.51;74.47;99552.69;1768473;81;21691;-76
2022/02/11 07:42:33;;;;;;;15.18;11.85;;;;;;;6.50;74.24;99563.07;1742717;81;21525;-74
2022/02/11 07:45:00;;;;;;;14.10;12.58;;;;;;;6.48;74.21;99559.80;1742267;81;21095;-74
2022/02/11 07:47:29;;;;;;;17.92;13.00;;;;;;;6.46;74.28;99555.22;1768991;81;21052;-75
2022/02/11 07:49:59;;;;;;;17.45;12.23;;;;;;;6.45;74.50;99554.10;1768803;81;21088;-77
2022/02/11 07:52:25;;;;;;;17.80;13.45;;;;;;;6.45;74.55;99570.95;1726548;82;21559;-76
2022/02/11 07:54:51;;;;;;;16.48;13.20;;;;;;;6.47;74.42;99560.05;1741069;81;20965;-74
2022/02/11 07:57:20;;;;;;;15.40;12.20;;;;;;;6.47;74.55;99548.03;1741831;81;21646;-79
2022/02/11 07:59:46;;;;;;;15.35;13.08;;;;;;;6.48;74.48;99554.45;1766960;81;21024;-79
2022/02/11 08:02:14;;;;;;;16.90;14.18;;;;;;;6.50;74.51;99544.89;1768821;79;21573;-79
2022/02/11 08:04:41;;;;;;;16.95;13.32;;;;;;;6.50;74.65;99537.70;1762394;81;21097;-79
2022/02/11 08:07:08;;;;;;;17.02;12.30;;;;;;;6.52;74.76;99538.81;1750495;81;21552;-82
2022/02/11 08:09:34;;;;;;;16.12;13.75;;;;;;;6.57;74.82;99562.44;1769029;81;20948;-78
2022/02/11 08:12:02;;;;;;;14.47;12.82;;;;;;;6.61;74.56;99540.12;1742596;81;21574;-78
2022/02/11 08:14:32;;;;;;;16.27;12.85;;;;;;;6.64;74.47;99561.03;1742824;81;21335;-75
2022/02/11 08:16:59;;;;;;;17.57;13.10;;;;;;;6.65;74.61;99558.66;1761683;81;21093;-78
2022/02/11 08:19:26;;;;;;;14.65;12.98;;;;;;;6.66;74.51;99561.63;1739181;81;21117;-84
2022/02/11 08:21:54;;;;;;;20.52;14.40;;;;;;;6.67;74.57;99551.20;1744701;81;20980;-83
2022/02/11 08:24:20;;;;;;;18.70;14.03;;;;;;;6.64;74.70;99549.00;1766620;81;21110;-79
2022/02/11 08:26:48;;;;;;;14.95;13.32;;;;;;;6.62;74.89;99560.98;1768988;81;21004;-81
2022/02/11 08:29:15;;;;;;;22.17;14.68;;;;;;;6.60;75.11;99567.05;1768924;79;21047;-79
2022/02/11 08:31:42;;;;;;;18.70;14.20;;;;;;;6.58;75.33;99551.23;1768055;81;21008;-81
2022/02/11 08:34:08;;;;;;;14.65;12.45;;;;;;;6.55;75.62;99555.71;1761259;79;21060;-80
2022/02/11 08:36:35;;;;;;;16.70;13.45;;;;;;;6.54;75.94;99548.73;1759892;81;21107;-84
2022/02/11 08:39:03;;;;;;;20.32;14.35;;;;;;;6.55;76.32;99578.42;1760200;81;20960;-77
2022/02/11 08:41:30;;;;;;;18.07;13.58;;;;;;;6.52;76.50;99568.98;1759906;81;21005;-78
2022/02/11 08:43:56;;;;;;;18.80;14.60;;;;;;;6.49;76.70;99562.77;1760038;81;21152;-79
2022/02/11 08:46:23;;;;;;;17.15;14.18;;;;;;;6.50;76.90;99555.06;1738109;81;21060;-77
2022/02/11 08:48:50;;;;;;;16.35;14.03;;;;;;;6.48;77.14;99572.34;1759646;81;21060;-78
2022/02/11 08:51:16;;;;;;;18.80;12.37;;;;;;;6.45;77.42;99582.97;1736808;81;21146;-77
2022/02/11 08:53:43;;;;;;;18.77;12.50;;;;;;;6.43;77.75;99582.88;1728299;82;21046;-77
2022/02/11 08:56:09;;;;;;;15.03;12.00;;;;;;;6.42;77.92;99577.27;1729206;82;21108;-77
2022/02/11 08:58:36;;;;;;;14.50;12.93;;;;;;;6.43;78.20;99577.02;1729089;82;21040;-77
2022/02/11 09:01:04;;;;;;;15.60;13.45;;;;;;;6.42;78.37;99577.27;1735894;81;21022;-76
2022/02/11 09:03:31;;;;;;;14.13;12.60;;;;;;;6.41;78.61;99588.98;1755311;81;21102;-77
2022/02/11 09:05:57;;;;;;;14.10;12.30;;;;;;;6.41;78.78;99573.78;1735618;80;21496;-76
2022/02/11 09:08:26;;;;;;;15.75;12.85;;;;;;;6.42;78.91;99578.61;1736065;81;21526;-79
2022/02/11 09:10:52;;;;;;;17.05;13.43;;;;;;;6.41;79.19;99602.34;1725798;81;21068;-75
2022/02/11 09:13:23;;;;;;;19.82;15.78;;;;;;;6.41;79.42;99593.81;1774244;80;20919;-77
2022/02/11 09:15:50;;;;;;;16.00;12.82;;;;;;;6.40;79.52;99585.50;1755400;81;20984;-77
2022/02/11 09:18:16;;;;;;;16.48;12.85;;;;;;;6.37;79.92;99601.98;1755280;81;20912;-79
2022/02/11 09:20:44;;;;;;;20.37;13.58;;;;;;;6.34;80.22;99586.91;1734092;81;21132;-76
2022/02/11 09:23:10;;;;;;;17.92;14.23;;;;;;;6.31;80.47;99575.35;1735858;81;21034;-75
2022/02/11 09:25:37;;;;;;;19.15;14.83;;;;;;;6.31;80.79;99582.03;1762776;80;21054;-78
2022/02/11 09:28:04;;;;;;;16.27;14.40;;;;;;;6.31;81.21;99602.88;1765911;80;21107;-78
2022/02/11 09:30:33;;;;;;;18.37;13.53;;;;;;;6.32;81.31;99609.86;1765742;80;21023;-79
2022/02/11 09:33:00;;;;;;;18.02;14.58;;;;;;;6.36;81.43;99592.34;1715560;81;21079;-80
2022/02/11 09:35:30;;;;;;;22.22;15.55;;;;;;;6.38;81.67;99598.80;1818334;78;21035;-81
2022/02/11 09:37:58;;;;;;;17.02;14.85;;;;;;;6.37;81.88;99630.03;1795731;78;21003;-81
2022/02/11 09:40:25;;;;;;;22.60;14.98;;;;;;;6.36;82.20;99589.67;1795319;78;21733;-81
2022/02/11 09:42:54;;;;;;;21.90;15.78;;;;;;;6.34;82.35;99585.57;1742776;81;21522;-80
2022/02/11 09:45:22;;;;;;;22.32;15.83;;;;;;;6.36;82.43;99603.53;1769213;81;21068;-84
2022/02/11 09:47:51;;;;;;;20.90;16.87;;;;;;;6.38;82.50;99592.13;1761776;79;21482;-83
2022/02/11 09:50:20;;;;;;;25.40;17.32;;;;;;;6.39;82.51;99587.05;1738787;81;21064;-83
2022/02/11 09:52:52;;;;;;;25.92;16.73;;;;;;;6.38;82.58;99594.24;1713419;82;21669;-90
2022/02/11 09:55:37;;;;;;;21.12;15.43;;;;;;;6.37;82.71;99601.98;1713165;82;21004;-88
2022/02/11 09:58:17;;;;;;;24.47;16.67;;;;;;;6.35;82.93;99588.55;1738412;82;20984;-83
2022/02/11 10:00:48;;;;;;;20.60;15.65;;;;;;;6.35;83.10;99577.34;1738726;82;21064;-80
2022/02/11 10:03:21;;;;;;;;;;;;;;;6.39;83.22;99582.53;1733248;81;21019;-83
2022/02/11 10:06:01;;;;;;;20.08;15.25;;;;;;;6.43;83.27;99595.72;1743937;81;20587;-87
2022/02/11 10:08:33;;;;;;;19.77;14.35;;;;;;;6.45;83.23;99618.22;1714883;82;20992;-79
2022/02/11 10:11:00;;;;;;;21.93;16.67;;;;;;;6.46;83.20;99599.81;1747281;81;21586;-82
2022/02/11 10:13:35;;;;;;;18.50;14.23;;;;;;;6.45;83.38;99620.89;1765054;81;20992;-85
2022/02/11 10:16:09;;;;;;;21.87;15.45;;;;;;;6.43;83.48;99638.47;1738528;82;20973;-84
2022/02/11 10:18:40;;;;;;;22.50;16.35;;;;;;;6.45;83.54;99604.86;1645182;82;21121;-86
2022/02/11 10:21:12;;;;;;;23.62;16.45;;;;;;;6.46;83.59;99615.33;1741606;81;20977;-84
2022/02/11 10:23:41;;;;;;;23.02;17.27;;;;;;;6.46;83.65;99635.87;1743014;81;20976;-89
2022/02/11 10:26:14;;;;;;;22.75;15.88;;;;;;;6.43;83.77;99625.11;1719298;81;21008;-86
2022/02/11 10:28:49;;;;;;;22.48;15.00;;;;;;;6.41;83.92;99623.72;1762520;81;21063;-82
2022/02/11 10:31:21;;;;;;;20.32;16.57;;;;;;;6.39;84.26;99648.48;1738838;81;21127;-83
2022/02/11 10:37:07;;;;;;;21.70;16.12;;;;;;;6.38;84.49;99627.63;1739196;81;21023;-86
2022/02/11 10:39:35;;;;;;;21.82;16.50;;;;;;;6.37;84.58;99643.39;1740734;81;21032;-78
2022/02/11 10:42:16;;;;;;;26.15;18.45;;;;;;;6.36;84.75;99635.08;1739501;81;21072;-81
2022/02/11 10:44:43;;;;;;;20.90;16.42;;;;;;;6.36;84.87;99639.59;1737808;82;20986;-86
2022/02/11 10:47:15;;;;;;;21.62;16.00;;;;;;;6.35;84.94;99638.78;1730645;82;21057;-87
2022/02/11 10:49:47;;;;;;;23.55;15.75;;;;;;;6.38;84.93;99642.33;1782043;79;21050;-76
2022/02/11 10:52:25;;;;;;;24.90;18.07;;;;;;;6.42;84.91;99638.71;1758501;79;21525;-85
2022/02/11 10:54:55;;;;;;;22.67;16.67;;;;;;;6.42;84.77;99640.86;1753220;81;21035;-76
2022/02/11 10:57:26;;;;;;;20.12;15.53;;;;;;;6.42;84.83;99654.22;1765678;81;21141;-82
2022/02/11 10:59:53;;;;;;;20.87;15.07;;;;;;;6.45;84.78;99648.94;1765627;81;21071;-84
2022/02/11 11:02:21;;;;;;;21.20;16.73;;;;;;;6.49;84.66;99659.47;1736187;81;20973;-80
2022/02/11 11:04:53;;;;;;;20.88;16.35;;;;;;;6.51;84.45;99666.23;1768030;81;21079;-83
2022/02/11 11:07:28;;;;;;;20.32;15.83;;;;;;;6.53;84.42;99660.13;1768633;81;36739;-79
2022/02/11 11:09:56;;;;;;;;;;;;;;;6.56;84.34;99652.20;1770752;81;21546;-87
2022/02/11 11:12:25;;;;;;;19.95;14.35;;;;;;;6.57;84.16;99652.47;1765570;79;20141;-76
2022/02/11 11:14:54;;;;;;;18.45;14.65;;;;;;;6.57;84.15;99661.83;1749319;81;20972;-76
2022/02/11 11:17:20;;;;;;;17.25;14.23;;;;;;;6.58;84.00;99651.44;1769795;78;44630;-76
2022/02/11 11:19:49;;;;;;;19.12;14.20;;;;;;;6.59;83.85;99659.75;1804359;78;21042;-77
2022/02/11 11:22:26;;;;;;;17.57;12.82;;;;;;;6.60;83.63;99663.25;1715861;82;22003;-84
2022/02/11 11:25:01;;;;;;;17.92;13.78;;;;;;;6.58;83.56;99657.60;1741376;82;20967;-85
2022/02/11 11:27:52;;;;;;;20.75;14.38;;;;;;;6.58;83.45;99662.94;1761176;81;20989;-82
2022/02/11 11:30:32;;;;;;;19.50;13.13;;;;;;;6.58;83.43;99667.47;1737049;81;21004;-90
2022/02/11 11:33:10;;;;;;;14.65;12.33;;;;;;;6.57;83.46;99665.31;1769153;81;21046;-90
2022/02/11 11:35:48;;;;;;;22.65;15.58;;;;;;;6.58;83.58;99687.52;1771988;81;21202;-87
2022/02/11 11:38:21;;;;;;;20.08;15.90;;;;;;;6.60;83.54;99674.75;1772093;81;20944;-88
2022/02/11 11:41:09;;;;;;;17.45;12.80;;;;;;;6.61;83.40;99685.75;1772103;81;21030;-89
2022/02/11 11:43:50;;;;;;;15.28;13.68;;;;;;;6.60;83.44;99687.30;1762779;81;21031;-80
2022/02/11 11:46:22;;;;;;;18.87;14.50;;;;;;;6.58;83.35;99672.30;1752691;81;21578;-80
2022/02/11 11:49:09;;;;;;;18.82;13.75;;;;;;;6.60;83.40;99668.08;1772310;81;21143;-77
2022/02/11 11:51:42;;;;;;;20.92;15.68;;;;;;;6.65;83.39;99684.77;1772172;81;20963;-79
2022/02/11 11:54:21;;;;;;;;;;;;;;;6.69;83.08;99680.09;1774861;79;20996;-82
2022/02/11 11:57:07;;;;;;;19.70;13.85;;;;;;;6.72;82.98;99677.47;1791312;79;20214;-78
2022/02/11 11:59:47;;;;;;;17.65;12.60;;;;;;;6.76;82.78;99683.48;1741431;82;21024;-74
2022/02/11 12:02:20;;;;;;;19.52;14.03;;;;;;;6.80;82.61;99682.01;1741142;82;21078;-76
2022/02/11 12:04:56;;;;;;;14.18;12.15;;;;;;;6.79;82.40;99696.92;1767908;81;20948;-82
2022/02/11 12:07:37;;;;;;;18.82;15.03;;;;;;;6.79;82.29;99678.22;1721901;81;21600;-82
2022/02/11 12:10:07;;;;;;;18.37;13.45;;;;;;;6.79;82.10;99686.23;1745041;81;21627;-78
2022/02/11 12:12:36;;;;;;;19.90;15.72;;;;;;;6.77;81.94;99691.80;1746284;81;20960;-80
2022/02/11 12:15:09;;;;;;;18.00;12.85;;;;;;;6.77;82.03;99695.80;1709389;82;21354;-74
2022/02/11 12:17:40;;;;;;;16.70;12.65;;;;;;;6.77;81.81;99688.30;1773817;79;20972;-85
2022/02/11 12:20:10;;;;;;;15.13;12.03;;;;;;;6.77;81.74;99689.64;1756877;81;21543;-92
2022/02/11 12:27:19;;;;;;;16.35;11.97;;;;;;;6.79;81.70;99689.72;1770176;80;20943;-91
2022/02/11 12:28:04;;;;;;;12.70;10.25;;;;;;;6.82;79.79;99719.19;1780720;80;20943;-87
2022/02/11 12:30:32;;;;;;;10.88;9.78;;;;;;;6.80;79.34;99707.41;1741758;82;20991;-88
2022/02/11 12:33:01;;;;;;;11.68;9.68;;;;;;;6.79;79.15;99708.44;1770988;79;21057;-77
2022/02/11 12:35:30;;;;;;;9.78;8.08;;;;;;;6.85;78.69;99700.86;1768659;78;20980;-84
2022/02/11 12:37:59;;;;;;;9.35;7.72;;;;;;;6.97;78.59;99704.39;1780472;80;21082;-82
2022/02/11 12:40:28;;;;;;;10.40;7.90;;;;;;;7.09;77.52;99716.48;1781460;80;21037;-82
2022/02/11 12:42:58;;;;;;;12.18;9.23;;;;;;;7.21;76.82;99708.49;1761295;80;21070;-84
2022/02/11 12:45:31;;;;;;;10.60;7.75;;;;;;;7.31;76.38;99702.89;1762086;80;21508;-81
2022/02/11 12:47:57;;;;;;;8.77;7.50;;;;;;;7.41;75.10;99703.67;1763363;79;21106;-83
2022/02/11 12:50:33;;;;;;;10.00;7.70;;;;;;;7.50;75.06;99705.49;1761552;80;21205;-84
2022/02/11 12:53:03;;;;;;;9.68;7.58;;;;;;;7.52;73.78;99710.92;1806377;77;21163;-81
2022/02/11 12:55:36;;;;;;;11.30;8.85;;;;;;;7.57;74.09;99696.85;1788462;77;20897;-79
2022/02/11 12:58:01;;;;;;;12.95;8.83;;;;;;;7.63;73.71;99705.28;1781073;80;21628;-80
2022/02/11 13:00:31;;;;;;;10.40;8.85;;;;;;;7.66;73.64;99705.66;1781544;80;21044;-79
2022/02/11 13:02:58;;;;;;;9.83;8.20;;;;;;;7.66;73.32;99708.84;1736261;80;21543;-78
2022/02/11 13:05:48;;;;;;;9.63;7.70;;;;;;;7.61;72.80;99725.60;1781394;80;21467;-82
2022/02/11 13:08:26;;;;;;;8.20;6.33;;;;;;;7.55;72.62;99712.31;1783586;79;20924;-71
2022/02/11 13:10:56;;;;;;;8.43;6.83;;;;;;;7.48;72.72;99711.61;1781506;80;21027;-74
2022/02/11 13:13:22;;;;;;;9.03;7.55;;;;;;;7.41;72.92;99719.73;1781419;80;20985;-76
2022/02/11 13:15:56;;;;;;;8.03;7.22;;;;;;;7.32;73.11;99711.22;1794982;77;21022;-81
2022/02/11 13:18:26;;;;;;;9.48;7.78;;;;;;;7.23;73.26;99709.91;1782238;79;21883;-81
2022/02/11 13:21:04;;;;;;;7.65;6.72;;;;;;;7.13;73.37;99719.00;1811599;79;20940;-86
2022/02/11 13:23:31;;;;;;;11.88;9.35;;;;;;;7.06;73.76;99718.25;1782514;78;21543;-79
2022/02/11 13:26:00;;;;;;;11.65;8.08;;;;;;;7.04;74.11;99719.02;1771371;79;21094;-80
2022/02/11 13:28:30;;;;;;;11.08;7.45;;;;;;;7.07;74.31;99719.08;1836434;78;21036;-86
2022/02/11 13:31:02;;;;;;;8.30;7.28;;;;;;;7.14;74.41;99719.81;1836235;78;21038;-88
2022/02/11 13:33:36;;;;;;;8.50;7.05;;;;;;;7.25;74.30;99719.84;1836836;78;21518;-87
2022/02/11 13:36:09;;;;;;;7.90;7.10;;;;;;;7.40;73.62;99730.95;1813376;77;21063;-85
2022/02/11 13:38:39;;;;;;;10.30;6.90;;;;;;;7.54;73.28;99736.09;1802254;79;21477;-83
2022/02/11 13:41:13;;;;;;;7.78;5.62;;;;;;;7.67;72.73;99738.59;1801816;79;20912;-79
2022/02/11 13:43:56;;;;;;;8.43;6.42;;;;;;;7.73;70.61;99737.13;1787945;79;21085;-85
2022/02/11 13:46:40;;;;;;;6.95;5.35;;;;;;;7.70;69.73;99744.30;1798558;78;21645;-86
2022/02/11 13:49:16;;;;;;;11.65;7.00;;;;;;;7.59;69.25;99732.21;1818440;78;21094;-89
2022/02/11 13:51:43;;;;;;;5.08;4.30;;;;;;;7.48;69.34;99741.87;1800053;79;21007;-88
2022/02/11 13:54:15;;;;;;;8.83;6.30;;;;;;;7.33;68.84;99760.19;1800689;79;20975;-90
2022/02/11 13:56:49;;;;;;;7.60;6.40;;;;;;;7.21;68.75;99769.49;1801351;79;21132;-89
2022/02/11 13:59:26;;;;;;;7.75;6.95;;;;;;;7.13;68.88;99757.78;1787781;79;20932;-89
2022/02/11 14:02:10;;;;;;;7.65;6.80;;;;;;;7.03;68.29;99760.16;1786929;79;21516;-88
2022/02/11 14:04:44;;;;;;;5.50;5.00;;;;;;;6.93;68.29;99763.38;1782923;79;21014;-90
2022/02/11 14:07:13;;;;;;;7.58;6.08;;;;;;;6.85;68.32;99769.55;1782948;79;20991;-80
2022/02/11 14:09:39;;;;;;;6.92;6.15;;;;;;;6.78;68.49;99772.28;1770114;81;21531;-74
2022/02/11 14:12:19;;;;;;;7.65;6.47;;;;;;;6.73;68.81;99768.12;1771712;79;21023;-79
2022/02/11 14:14:51;;;;;;;6.30;5.15;;;;;;;6.68;69.09;99770.65;1770556;79;20951;-75
2022/02/11 14:17:18;;;;;;;5.78;5.17;;;;;;;6.61;69.24;99771.26;1770116;80;21136;-81
2022/02/11 14:19:44;;;;;;;6.33;5.50;;;;;;;6.58;69.49;99778.36;1741072;81;21530;-78
2022/02/11 14:22:11;;;;;;;7.35;6.50;;;;;;;6.56;69.69;99783.12;1741175;82;21146;-86
2022/02/11 14:24:37;;;;;;;7.60;5.65;;;;;;;6.51;69.84;99786.47;1736153;82;21065;-82
2022/02/11 14:27:06;;;;;;;5.97;5.40;;;;;;;6.46;70.18;99790.83;1758669;80;20975;-83
2022/02/11 14:29:33;;;;;;;7.30;6.60;;;;;;;6.43;70.48;99802.75;1780713;78;21070;-78
2022/02/11 14:32:00;;;;;;;5.45;4.95;;;;;;;6.39;70.72;99800.23;1773692;79;21047;-85
2022/02/11 14:34:26;;;;;;;8.78;7.42;;;;;;;6.35;71.12;99804.38;1738984;81;21053;-80
2022/02/11 14:36:54;;;;;;;4.00;3.55;;;;;;;6.26;71.54;99802.21;1802218;78;20976;-80
2022/02/11 14:39:21;;;;;;;6.37;4.00;;;;;;;6.24;71.89;99806.42;1745865;81;20975;-85
2022/02/11 14:41:54;;;;;;;7.55;3.60;;;;;;;6.23;71.90;99810.67;1788356;79;21007;-77
2022/02/11 14:44:28;;;;;;;;;;;;;;;6.16;71.95;99821.39;1748108;81;21039;-77
2022/02/11 14:46:57;;;;;;;4.85;2.75;;;;;;;6.16;71.84;99832.08;1801442;79;21091;-84
2022/02/11 14:49:24;;;;;;;3.80;3.45;;;;;;;6.10;70.96;99840.95;1803015;79;20979;-90
2022/02/11 14:52:04;;;;;;;3.80;3.50;;;;;;;6.01;70.96;99835.58;1803454;78;20996;-83
2022/02/11 14:54:35;;;;;;;3.60;3.30;;;;;;;5.85;70.67;99832.87;1804321;79;21488;-85
2022/02/11 14:57:04;;;;;;;5.70;4.62;;;;;;;5.82;70.55;99836.50;1787792;78;21468;-82
2022/02/11 14:59:30;;;;;;;5.50;4.50;;;;;;;5.79;70.39;99848.95;1733873;82;21127;-77
2022/02/11 15:01:57;;;;;;;6.55;3.95;;;;;;;5.75;70.17;99837.89;1765120;79;21518;-77
2022/02/11 15:04:24;;;;;;;6.62;4.70;;;;;;;5.69;69.81;99848.91;1770324;79;21017;-78
2022/02/11 15:06:53;;;;;;;4.83;2.98;;;;;;;5.64;69.76;99847.91;1715157;82;21085;-75
2022/02/11 15:09:20;;;;;;;7.20;5.25;;;;;;;5.61;69.78;99859.80;1741158;81;20974;-76
2022/02/11 15:11:47;;;;;;;8.03;5.33;;;;;;;5.59;69.94;99854.40;1732070;82;21141;-76
2022/02/11 15:14:14;;;;;;;11.63;6.25;;;;;;;5.56;69.82;99860.17;1770039;80;20940;-77
2022/02/11 15:16:42;;;;;;;8.90;5.92;;;;;;;5.50;69.76;99861.02;1741737;82;21501;-77
2022/02/11 15:19:10;;;;;;;7.80;6.08;;;;;;;5.46;70.00;99873.14;1770170;81;20924;-77
2022/02/11 15:21:38;;;;;;;9.40;5.97;;;;;;;5.41;69.95;99868.44;1716115;82;21514;-80
2022/02/11 15:24:06;;;;;;;10.20;6.55;;;;;;;5.37;70.09;99866.41;1801856;79;21178;-77